Terminal Aerodrome Forecast
Issued by NWS

Home | Current Version | Previous Version | Text Only | Print | Product List | Glossary On
Versions: 1 2 3 4 5 6 7 8 9 10 11 12 13 14 15 16 17 18 19 20
000
FTUS46 KSEW 280422 AAA
TAFBFI
TAF AMD
KBFI 280422Z 2804/2824 13004KT P6SM -SHRASN SCT015 BKN022 OVC030
     FM280600 VRB04KT 5SM -SHRASN SCT008 OVC015
      TEMPO 2806/2810 2SM -SHSN OVC008
     FM281300 15004KT P6SM SCT015 OVC020
     FM281900 16008KT P6SM BKN035
     FM282100 17008KT P6SM BKN045=

USA.gov is the U.S. government's official web portal to all federal, state and local government web resources and services.